Terminal Aerodrome Forecast
Issued by NWS

Home | Current Version | Previous Version | Text Only | Print | Product List | Glossary On
Versions: 1 2 3 4 5 6 7 8 9 10 11 12 13 14
000
FTAK31 PAFA 181720
TAFATA
TAF
PATA 181720Z 1818/1918 23008KT P6SM OVC014
     FM190300 10004KT 2SM BR OVC007
     FM191100 10011KT 2SM -SN BR OVC007=

USA.gov is the U.S. government's official web portal to all federal, state and local government web resources and services.